Wednesday, November 22, 2017, 7:51 AM EST
Back to Local

KHUL, Houlton Int'l Airport

Location: Houlton, ME, United States Lat: 46.117
Local Time: 7:51 AM EST (12:51 GMT) Lon: -67.8
Time Zone: US/Eastern Elev: 492 ft

Show me the last for .
Show Coded

Time T Td Feel RH Dir Speed Gust Alt SLP Vis Weather Sky Remarks
2017-11-22 06:53 30 29 - 95 - Calm - 29.96 29.98 5 BR CLR 6-hr Min Temp (7am): 28.9°F
6-hr Max Temp (7am): 39.0°F
2017-11-22 05:53 36 34 - 92 - Calm - 29.94 29.95 10 CLR None
2017-11-22 04:53 37 35 33 92 180° 5 - 29.94 29.96 10 CLR None
2017-11-22 03:53 38 36 34 92 170° 5 - 29.93 29.95 10 CLR None
2017-11-22 02:53 38 35 34 89 180° 5 - 29.93 29.95 10 CLR None
2017-11-22 01:53 39 36 36 88 200° 5 - 29.93 29.95 10 CLR None
2017-11-22 00:53 39 36 35 88 200° 6 - 29.92 29.93 10 CLR 6-hr Min Temp (1am): 36.0°F
6-hr Max Temp (1am): 41.0°F
2017-11-21 23:53 40 36 35 85 190° 7 - 29.92 29.94 10 CLR 24-hr Min Temp (12am): 10.9°F
24-hr Max Temp (12am): 41.0°F
2017-11-21 22:53 39 36 36 88 190° 5 - 29.92 29.93 10 CLR None
2017-11-21 21:53 40 35 35 82 180° 7 - 29.91 29.93 10 CLR None
2017-11-21 20:53 39 33 36 79 Variable 5 - 29.90 29.92 10 CLR None
2017-11-21 19:53 38 32 34 78 180° 5 - 29.89 29.92 10 CLR None
2017-11-21 18:53 36 30 31 78 190° 6 - 29.89 29.91 10 CLR 6-hr Min Temp (7pm): 32.0°F
6-hr Max Temp (7pm): 37.9°F
2017-11-21 17:53 35 29 30 78 Variable 6 - 29.89 29.92 10 CLR None
2017-11-21 16:53 32 26 27 78 180° 5 - 29.90 29.92 10 CLR None
2017-11-21 15:53 34 24 30 66 170° 5 - 29.90 29.93 10 CLR None
2017-11-21 14:53 35 23 29 61 150° 7 - 29.90 29.92 10 CLR None
2017-11-21 13:53 38 23 29 54 170° 12 16 29.91 29.94 10 CLR None
2017-11-21 12:53 35 20 29 53 190° 8 - 29.93 29.96 10 CLR 6-hr Min Temp (1pm): 12.0°F
6-hr Max Temp (1pm): 35.1°F
2017-11-21 11:53 30 16 24 55 Variable 6 - 29.95 29.98 10 CLR None
2017-11-21 10:53 27 13 19 54 Variable 7 - 29.99 30.01 10 BKN040 None
2017-11-21 09:53 24 11 15 56 160° 8 - 30.02 30.04 10 FEW041 None
2017-11-21 08:53 21 10 - 61 - Calm - 30.02 30.05 10 CLR None
2017-11-21 07:53 16 9 9 73 200° 5 - 30.04 30.07 10 CLR None

Support USWX by starting your Amazon purchase here.